Map

Track Data

SID SEASON NUMBER BASIN SUBBASIN NAME ISO_TIME NATURE LAT LON WMO_WIND WMO_PRES WMO_AGENCY TRACK_TYPE DIST2LAND LANDFALL IFLAG USA_AGENCY USA_ATCF_ID USA_LAT USA_LON USA_RECORD USA_STATUS USA_WIND USA_PRES USA_SSHS USA_R34_NE USA_R34_SE USA_R34_SW USA_R34_NW USA_R50_NE USA_R50_SE USA_R50_SW USA_R50_NW USA_R64_NE USA_R64_SE USA_R64_SW USA_R64_NW USA_POCI USA_ROCI USA_RMW USA_EYE TOKYO_LAT TOKYO_LON TOKYO_GRADE TOKYO_WIND TOKYO_PRES TOKYO_R50_DIR TOKYO_R50_LONG TOKYO_R50_SHORT TOKYO_R30_DIR TOKYO_R30_LONG TOKYO_R30_SHORT TOKYO_LAND CMA_LAT CMA_LON CMA_CAT CMA_WIND CMA_PRES HKO_LAT HKO_LON HKO_CAT HKO_WIND HKO_PRES NEWDELHI_LAT NEWDELHI_LON NEWDELHI_GRADE NEWDELHI_WIND NEWDELHI_PRES NEWDELHI_CI NEWDELHI_DP NEWDELHI_POCI REUNION_LAT REUNION_LON REUNION_TYPE REUNION_WIND REUNION_PRES REUNION_TNUM REUNION_CI REUNION_RMW REUNION_R34_NE REUNION_R34_SE REUNION_R34_SW REUNION_R34_NW REUNION_R50_NE REUNION_R50_SE REUNION_R50_SW REUNION_R50_NW REUNION_R64_NE REUNION_R64_SE REUNION_R64_SW REUNION_R64_NW BOM_LAT BOM_LON BOM_TYPE BOM_WIND BOM_PRES BOM_TNUM BOM_CI BOM_RMW BOM_R34_NE BOM_R34_SE BOM_R34_SW BOM_R34_NW BOM_R50_NE BOM_R50_SE BOM_R50_SW BOM_R50_NW BOM_R64_NE BOM_R64_SE BOM_R64_SW BOM_R64_NW BOM_ROCI BOM_POCI BOM_EYE BOM_POS_METHOD BOM_PRES_METHOD NADI_LAT NADI_LON NADI_CAT NADI_WIND NADI_PRES WELLINGTON_LAT WELLINGTON_LON WELLINGTON_WIND WELLINGTON_PRES DS824_LAT DS824_LON DS824_STAGE DS824_WIND DS824_PRES TD9636_LAT TD9636_LON TD9636_STAGE TD9636_WIND TD9636_PRES TD9635_LAT TD9635_LON TD9635_WIND TD9635_PRES TD9635_ROCI NEUMANN_LAT NEUMANN_LON NEUMANN_CLASS NEUMANN_WIND NEUMANN_PRES MLC_LAT MLC_LON MLC_CLASS MLC_WIND MLC_PRES USA_GUST BOM_GUST BOM_GUST_PER REUNION_GUST REUNION_GUST_PER USA_SEAHGT USA_SEARAD_NE USA_SEARAD_SE USA_SEARAD_SW USA_SEARAD_NW STORM_SPEED STORM_DIR
1970215N14342 1970 79 NA NA NOT_NAMED 1970-08-02 12:00:00 TS 14.0000 -18.0000 20 hurdat_atl main 93 93 O_____________ hurdat_atl AL051970 14.0000 -18.0000 TD 20 -1 15 289
1970215N14342 1970 79 NA NA NOT_NAMED 1970-08-02 15:00:00 TS 14.2505 -18.7497 main 136 136 P_____________ AL051970 14.2505 -18.7497 TD 22 -1 15 289
1970215N14342 1970 79 NA NA NOT_NAMED 1970-08-02 18:00:00 TS 14.5000 -19.5000 25 hurdat_atl main 216 216 O_____________ hurdat_atl AL051970 14.5000 -19.5000 TD 25 -1 15 289
1970215N14342 1970 79 NA NA NOT_NAMED 1970-08-02 21:00:00 TS 14.7498 -20.2502 main 301 301 P_____________ AL051970 14.7498 -20.2502 TD 25 -1 15 289
1970215N14342 1970 79 NA NA NOT_NAMED 1970-08-03 00:00:00 TS 15.0000 -21.0000 25 hurdat_atl main 377 377 O_____________ hurdat_atl AL051970 15.0000 -21.0000 TD 25 -1 15 289
1970215N14342 1970 79 NA NA NOT_NAMED 1970-08-03 03:00:00 TS 15.2498 -21.7502 main 465 465 P_____________ AL051970 15.2498 -21.7502 TD 27 -1 15 289
1970215N14342 1970 79 NA NA NOT_NAMED 1970-08-03 06:00:00 TS 15.5000 -22.5000 30 hurdat_atl main 544 544 O_____________ hurdat_atl AL051970 15.5000 -22.5000 TD 30 -1 15 290
1970215N14342 1970 79 NA NA NOT_NAMED 1970-08-03 09:00:00 TS 15.7647 -23.2500 main 634 634 P_____________ AL051970 15.7647 -23.2500 TD 30 -1 15 289
1970215N14342 1970 79 NA NA NOT_NAMED 1970-08-03 12:00:00 TS 16.0000 -24.0000 30 hurdat_atl main 712 712 O_____________ hurdat_atl AL051970 16.0000 -24.0000 TD 30 -1 15 285
1970215N14342 1970 79 NA NA NOT_NAMED 1970-08-03 15:00:00 TS 16.1572 -24.7504 main 800 800 P_____________ AL051970 16.1572 -24.7504 TD 30 -1 15 282
1970215N14342 1970 79 NA NA NOT_NAMED 1970-08-03 18:00:00 TS 16.3000 -25.5000 30 hurdat_atl main 875 875 O_____________ hurdat_atl AL051970 16.3000 -25.5000 TD 30 -1 15 283
1970215N14342 1970 79 NA NA NOT_NAMED 1970-08-03 21:00:00 TS 16.4922 -26.2501 main 964 964 P_____________ AL051970 16.4922 -26.2501 TD 30 -1 15 286
1970215N14342 1970 79 NA NA NOT_NAMED 1970-08-04 00:00:00 TS 16.7000 -27.0000 30 hurdat_atl main 1041 1041 O_____________ hurdat_atl AL051970 16.7000 -27.0000 TD 30 -1 15 286
1970215N14342 1970 79 NA NA NOT_NAMED 1970-08-04 03:00:00 TS 16.8997 -27.7502 main 1129 1129 P_____________ AL051970 16.8997 -27.7502 TD 30 -1 15 286
1970215N14342 1970 79 NA NA NOT_NAMED 1970-08-04 06:00:00 TS 17.1000 -28.5000 30 hurdat_atl main 1206 1206 O_____________ hurdat_atl AL051970 17.1000 -28.5000 TD 30 -1 15 287
1970215N14342 1970 79 NA NA NOT_NAMED 1970-08-04 09:00:00 TS 17.3297 -29.2498 main 1284 1284 P_____________ AL051970 17.3297 -29.2498 TD 27 -1 15 286
1970215N14342 1970 79 NA NA NOT_NAMED 1970-08-04 12:00:00 TS 17.5000 -30.0000 25 hurdat_atl main 1371 1371 O_____________ hurdat_atl AL051970 17.5000 -30.0000 TD 25 -1 14 278
1970215N14342 1970 79 NA NA NOT_NAMED 1970-08-04 15:00:00 TS 17.5297 -30.7504 main 1455 1455 P_____________ AL051970 17.5297 -30.7504 TD 25 -1 14 270
1970215N14342 1970 79 NA NA NOT_NAMED 1970-08-04 18:00:00 TS 17.5000 -31.5000 25 hurdat_atl main 1528 1528 O_____________ hurdat_atl AL051970 17.5000 -31.5000 TD 25 -1 14 269
1970215N14342 1970 79 NA NA NOT_NAMED 1970-08-04 21:00:00 TS 17.4997 -32.2500 main 1601 1601 P_____________ AL051970 17.4997 -32.2500 TD 25 -1 14 270
1970215N14342 1970 79 NA NA NOT_NAMED 1970-08-05 00:00:00 TS 17.5000 -33.0000 25 hurdat_atl main 1685 1685 O_____________ hurdat_atl AL051970 17.5000 -33.0000 TD 25 -1 14 270
1970215N14342 1970 79 NA NA NOT_NAMED 1970-08-05 03:00:00 TS 17.4997 -33.7500 main 1758 1769 P_____________ AL051970 17.4997 -33.7500 TD 25 -1 14 270
1970215N14342 1970 79 NA NA NOT_NAMED 1970-08-05 06:00:00 TS 17.5000 -34.5000 25 hurdat_atl main 1842 1842 O_____________ hurdat_atl AL051970 17.5000 -34.5000 TD 25 -1 14 270
1970215N14342 1970 79 NA NA NOT_NAMED 1970-08-05 09:00:00 TS 17.4992 -35.2125 main 1916 1916 P_____________ AL051970 17.4992 -35.2125 TD 25 -1 14 270
1970215N14342 1970 79 NA NA NOT_NAMED 1970-08-05 12:00:00 TS 17.5000 -36.0000 25 hurdat_atl main 2000 2000 O_____________ hurdat_atl AL051970 17.5000 -36.0000 TD 25 -1 17 270
1970215N14342 1970 79 NA NA NOT_NAMED 1970-08-05 15:00:00 TS 17.5000 -36.9625 main 2106 2078 P_____________ AL051970 17.5000 -36.9625 TD 25 -1 19 270
1970215N14342 1970 79 NA NA NOT_NAMED 1970-08-05 18:00:00 TS 17.5000 -38.0000 25 hurdat_atl main 2070 2002 O_____________ hurdat_atl AL051970 17.5000 -38.0000 TD 25 -1 19 270
1970215N14342 1970 79 NA NA NOT_NAMED 1970-08-05 21:00:00 TS 17.4995 -39.0000 main 1995 1931 P_____________ AL051970 17.4995 -39.0000 TD 22 -1 19 270
1970215N14342 1970 79 NA NA NOT_NAMED 1970-08-06 00:00:00 TS 17.5000 -40.0000 20 hurdat_atl main 1924 1862 O_____________ hurdat_atl AL051970 17.5000 -40.0000 TD 20 -1 19 270
1970215N14342 1970 79 NA NA NOT_NAMED 1970-08-06 03:00:00 TS 17.4995 -41.0000 main 1856 1798 P_____________ AL051970 17.4995 -41.0000 TD 20 -1 19 270
1970215N14342 1970 79 NA NA NOT_NAMED 1970-08-06 06:00:00 TS 17.5000 -42.0000 20 hurdat_atl main 1792 1735 O_____________ hurdat_atl AL051970 17.5000 -42.0000 TD 20 -1 19 270
1970215N14342 1970 79 NA NA NOT_NAMED 1970-08-06 09:00:00 TS 17.5010 -43.0000 main 1728 1671 P_____________ AL051970 17.5010 -43.0000 TD 20 -1 19 270
1970215N14342 1970 79 NA NA NOT_NAMED 1970-08-06 12:00:00 TS 17.5000 -44.0000 20 hurdat_atl main 1665 O_____________ hurdat_atl AL051970 17.5000 -44.0000 TD 20 -1 19 270

About IBTrACS Database

This database is a web-friendly format of International Best Track Archive for Climate Stewardship (IBTrACS), a global best track data archive curated by NOAA dating back to 1842.

Updated: 2021-10-21